createdAt,value
2017-09-07T00:01:47.362Z,70.40
2017-09-07T00:04:14.966Z,70.60
2017-09-07T00:06:42.488Z,70.60
2017-09-07T00:09:10.751Z,70.40
2017-09-07T00:11:39.399Z,70.30
2017-09-07T00:14:07.307Z,70.20
2017-09-07T00:16:34.802Z,70.30
2017-09-07T00:19:02.319Z,70.20
2017-09-07T00:21:29.870Z,70.00
2017-09-07T00:23:57.371Z,70.10
2017-09-07T00:26:24.986Z,70.10
2017-09-07T00:28:52.483Z,69.80
2017-09-07T00:31:20.083Z,70.10
2017-09-07T00:33:47.603Z,70.20
2017-09-07T00:36:15.098Z,70.40
2017-09-07T00:41:11.439Z,70.50
2017-09-07T00:43:38.971Z,70.70
2017-09-07T00:46:06.866Z,70.80
2017-09-07T00:48:34.377Z,70.80
2017-09-07T00:53:30.823Z,70.90
2017-09-07T00:55:59.104Z,70.90
2017-09-07T00:58:26.599Z,71.00
2017-09-07T01:00:54.116Z,71.00
2017-09-07T01:03:21.612Z,70.80
2017-09-07T01:05:49.176Z,71.10
2017-09-07T01:08:16.668Z,71.10
2017-09-07T01:10:45.311Z,71.10
2017-09-07T01:13:12.822Z,71.10
2017-09-07T01:15:40.808Z,71.10
2017-09-07T01:18:09.083Z,71.00
2017-09-07T01:20:36.747Z,70.80
2017-09-07T01:23:04.638Z,71.00
2017-09-07T01:25:32.195Z,70.90
2017-09-07T01:27:59.750Z,70.70
2017-09-07T01:30:28.388Z,70.60
2017-09-07T01:32:57.401Z,70.60
2017-09-07T01:35:25.763Z,70.40
2017-09-07T01:40:22.312Z,70.40
2017-09-07T01:42:49.803Z,70.40
2017-09-07T01:45:17.299Z,70.60
2017-09-07T01:47:44.799Z,70.50
2017-09-07T01:50:12.344Z,70.50
2017-09-07T01:52:40.011Z,70.70
2017-09-07T01:55:07.666Z,70.90
2017-09-07T01:57:35.162Z,71.00
2017-09-07T02:00:02.779Z,71.20
2017-09-07T02:02:30.278Z,71.30
2017-09-07T02:04:59.306Z,71.10
2017-09-07T02:07:26.795Z,71.00
2017-09-07T02:09:54.419Z,71.50
2017-09-07T02:12:22.079Z,71.40
2017-09-07T02:14:49.570Z,71.80
2017-09-07T02:17:17.192Z,71.90
2017-09-07T02:19:44.860Z,71.90
2017-09-07T02:22:13.541Z,72.00
2017-09-07T02:24:41.327Z,72.10
2017-09-07T02:27:09.604Z,71.90
2017-09-07T02:29:37.131Z,72.10
2017-09-07T02:32:04.797Z,72.20
2017-09-07T02:34:32.463Z,72.20
2017-09-07T02:37:00.123Z,72.10
2017-09-07T02:39:27.618Z,72.10
2017-09-07T02:41:55.127Z,72.10
2017-09-07T02:44:22.623Z,72.00
2017-09-07T02:46:50.519Z,72.00
2017-09-07T02:49:18.187Z,71.70
2017-09-07T02:51:45.683Z,71.70
2017-09-07T02:54:13.945Z,71.80
2017-09-07T02:56:41.576Z,71.60
2017-09-07T02:59:09.197Z,71.40
2017-09-07T03:01:36.894Z,71.50
2017-09-07T03:04:04.511Z,71.40
2017-09-07T03:06:32.006Z,71.60
2017-09-07T03:08:59.544Z,71.50
2017-09-07T03:11:27.543Z,71.50
2017-09-07T03:13:55.439Z,71.50
2017-09-07T03:16:23.065Z,71.20
2017-09-07T03:18:50.577Z,71.10
2017-09-07T03:21:18.075Z,71.10
2017-09-07T03:23:45.615Z,71.10
2017-09-07T03:26:13.270Z,71.30
2017-09-07T03:28:40.938Z,71.40
2017-09-07T03:31:09.412Z,71.10
2017-09-07T03:33:36.924Z,71.40
2017-09-07T03:36:05.575Z,71.10
2017-09-07T03:38:33.087Z,71.10
2017-09-07T03:41:00.663Z,71.20
2017-09-07T03:43:29.298Z,71.00
2017-09-07T03:45:56.791Z,70.70
2017-09-07T03:48:25.063Z,70.60
2017-09-07T03:50:53.341Z,70.50
2017-09-07T03:53:22.044Z,70.40
2017-09-07T03:55:49.562Z,70.50
2017-09-07T03:58:17.957Z,70.30
2017-09-07T04:00:46.038Z,70.40
2017-09-07T04:03:14.092Z,70.40
2017-09-07T04:05:43.094Z,70.30
2017-09-07T04:08:10.660Z,70.30
2017-09-07T04:10:38.317Z,70.00
2017-09-07T04:13:06.631Z,70.10
2017-09-07T04:15:34.523Z,70.40
2017-09-07T04:18:02.944Z,70.00
2017-09-07T04:20:30.594Z,69.70
2017-09-07T04:22:58.251Z,69.70
2017-09-07T04:25:25.747Z,69.80
2017-09-07T04:27:53.255Z,69.80
2017-09-07T04:30:20.763Z,70.00
2017-09-07T04:32:48.465Z,70.20
2017-09-07T04:35:16.231Z,70.40
2017-09-07T04:37:43.735Z,70.40
2017-09-07T04:40:12.051Z,70.60
2017-09-07T04:42:39.707Z,70.50
2017-09-07T04:45:07.223Z,70.60
2017-09-07T04:47:34.852Z,70.50
2017-09-07T04:50:02.771Z,70.40
2017-09-07T04:52:31.333Z,70.20
2017-09-07T04:54:59.792Z,70.10
2017-09-07T04:57:28.073Z,70.20
2017-09-07T04:59:55.591Z,70.00
2017-09-07T05:02:23.078Z,70.10
2017-09-07T05:04:50.675Z,70.40
2017-09-07T05:07:19.358Z,70.60
2017-09-07T05:09:47.038Z,70.70
2017-09-07T05:12:15.332Z,70.50
2017-09-07T05:14:42.822Z,70.90
2017-09-07T05:17:10.342Z,70.60
2017-09-07T05:19:37.839Z,70.50
2017-09-07T05:22:05.524Z,70.40
2017-09-07T05:24:33.189Z,70.40
2017-09-07T05:27:01.077Z,70.30
2017-09-07T05:29:28.717Z,70.30
2017-09-07T05:31:56.214Z,70.30
2017-09-07T05:34:23.720Z,70.40
2017-09-07T05:36:51.227Z,70.10
2017-09-07T05:41:47.626Z,70.50
2017-09-07T05:44:16.087Z,70.10
2017-09-07T05:46:43.743Z,70.10
2017-09-07T05:49:12.003Z,70.10
2017-09-07T05:51:39.679Z,70.20
2017-09-07T05:54:07.339Z,70.10
2017-09-07T05:56:34.990Z,70.00
2017-09-07T05:59:02.510Z,69.60
2017-09-07T06:01:30.004Z,69.60
2017-09-07T06:03:57.935Z,69.60
2017-09-07T06:06:26.211Z,69.70
2017-09-07T06:08:54.529Z,69.60
2017-09-07T06:11:22.443Z,69.80
2017-09-07T06:18:48.945Z,69.20
2017-09-07T06:26:14.951Z,69.00
2017-09-07T06:33:40.179Z,69.30
2017-09-07T06:36:09.008Z,69.50
2017-09-07T06:38:36.507Z,69.90
2017-09-07T06:41:04.046Z,69.90
2017-09-07T06:43:31.555Z,70.00
2017-09-07T06:45:59.091Z,70.30
2017-09-07T06:48:27.722Z,70.60
2017-09-07T06:50:55.622Z,71.00
2017-09-07T06:53:23.898Z,71.00
2017-09-07T06:55:51.399Z,71.00
2017-09-07T06:58:20.437Z,70.90
2017-09-07T07:00:48.061Z,70.80
2017-09-07T07:03:16.331Z,70.90
2017-09-07T07:05:44.608Z,71.00
2017-09-07T07:08:12.890Z,71.10
2017-09-07T07:10:41.566Z,71.20
2017-09-07T07:13:10.223Z,71.30
2017-09-07T07:15:37.720Z,71.50
2017-09-07T07:18:05.276Z,71.40
2017-09-07T07:20:32.783Z,71.70
2017-09-07T07:23:01.814Z,71.70
2017-09-07T07:25:29.350Z,71.60
2017-09-07T07:27:57.008Z,71.90
2017-09-07T07:30:24.674Z,72.00
2017-09-07T07:32:52.172Z,72.00
2017-09-07T07:35:19.684Z,72.30
2017-09-07T07:37:47.195Z,72.00
2017-09-07T07:40:14.819Z,72.30
2017-09-07T07:42:42.356Z,72.30
2017-09-07T07:45:09.853Z,72.50
2017-09-07T07:47:37.355Z,72.60
2017-09-07T07:50:06.019Z,72.90
2017-09-07T07:52:34.380Z,72.60
2017-09-07T07:55:02.086Z,72.20
2017-09-07T07:57:29.728Z,72.00
2017-09-07T07:59:57.383Z,72.20
2017-09-07T08:02:25.043Z,72.00
2017-09-07T08:04:53.504Z,71.70
2017-09-07T08:09:50.066Z,71.70
2017-09-07T08:12:17.683Z,71.30
2017-09-07T08:14:45.177Z,71.20
2017-09-07T08:17:13.063Z,70.90
2017-09-07T08:19:40.567Z,70.60
2017-09-07T08:22:09.386Z,70.40
2017-09-07T08:24:38.016Z,70.20
2017-09-07T08:27:05.511Z,70.20
2017-09-07T08:29:33.184Z,70.50
2017-09-07T08:32:00.841Z,70.60
2017-09-07T08:34:28.350Z,70.90
2017-09-07T08:36:56.239Z,70.80
2017-09-07T08:39:24.137Z,70.60
2017-09-07T08:41:52.451Z,70.50
2017-09-07T08:46:49.211Z,71.00
2017-09-07T08:49:17.098Z,70.40
2017-09-07T08:51:45.418Z,69.90
2017-09-07T08:54:13.052Z,69.50
2017-09-07T08:56:41.731Z,70.00
2017-09-07T08:59:09.388Z,70.30
2017-09-07T09:01:38.067Z,70.00
2017-09-07T09:04:05.727Z,69.20
2017-09-07T09:06:33.387Z,68.30
2017-09-07T09:09:01.287Z,69.10
2017-09-07T09:11:28.915Z,67.70
2017-09-07T09:13:56.822Z,67.60
2017-09-07T09:16:24.446Z,65.90
2017-09-07T09:18:52.105Z,66.40
2017-09-07T09:21:19.760Z,67.10
2017-09-07T09:23:47.424Z,66.10
2017-09-07T09:26:14.917Z,66.10
2017-09-07T09:28:42.441Z,66.70
2017-09-07T09:31:10.711Z,66.20
2017-09-07T09:33:38.267Z,65.50
2017-09-07T09:36:06.745Z,65.20
2017-09-07T09:38:34.383Z,65.50
2017-09-07T09:41:02.271Z,65.10
2017-09-07T09:43:30.547Z,65.10
2017-09-07T09:45:58.819Z,65.00
2017-09-07T09:48:26.323Z,66.00
2017-09-07T09:50:53.918Z,65.60
2017-09-07T09:53:21.425Z,65.80
2017-09-07T09:55:48.923Z,65.00
2017-09-07T09:58:16.423Z,65.10
2017-09-07T10:00:44.132Z,64.70
2017-09-07T10:03:11.641Z,64.50
2017-09-07T10:05:39.164Z,62.20
2017-09-07T10:08:06.659Z,61.30
2017-09-07T10:10:34.655Z,61.30
2017-09-07T10:13:02.210Z,60.00
2017-09-07T10:15:30.106Z,60.10
2017-09-07T10:17:57.739Z,60.10
2017-09-07T10:20:25.811Z,60.40
2017-09-07T10:22:53.481Z,60.20
2017-09-07T10:25:21.759Z,58.40
2017-09-07T10:27:49.270Z,58.50
2017-09-07T10:30:17.531Z,58.30
2017-09-07T10:32:45.922Z,57.50
2017-09-07T10:35:14.027Z,56.90
2017-09-07T10:37:42.323Z,56.20
2017-09-07T10:40:09.819Z,56.50
2017-09-07T10:45:06.476Z,57.30
2017-09-07T10:47:33.971Z,57.70
2017-09-07T10:50:01.482Z,58.60
2017-09-07T10:52:28.975Z,59.00
2017-09-07T10:54:56.526Z,59.60
2017-09-07T10:57:24.171Z,60.00
2017-09-07T10:59:51.671Z,60.20
2017-09-07T11:04:49.147Z,59.80
2017-09-07T11:07:16.643Z,59.90
2017-09-07T11:09:45.154Z,60.70
2017-09-07T11:12:12.789Z,60.00
2017-09-07T11:14:40.861Z,60.80
2017-09-07T11:17:09.127Z,60.00
2017-09-07T11:19:36.863Z,59.20
2017-09-07T11:22:05.132Z,59.60
2017-09-07T11:24:32.731Z,59.80
2017-09-07T11:27:00.991Z,59.90
2017-09-07T11:29:28.663Z,60.00
2017-09-07T11:31:56.322Z,59.60
2017-09-07T11:34:23.980Z,60.20
2017-09-07T11:36:51.627Z,60.50
2017-09-07T11:39:19.307Z,59.20
2017-09-07T11:41:46.979Z,59.70
2017-09-07T11:44:14.626Z,59.60
2017-09-07T11:46:42.127Z,59.80
2017-09-07T11:49:10.394Z,60.20
2017-09-07T11:51:37.915Z,59.80
2017-09-07T11:54:05.447Z,59.70
2017-09-07T11:56:32.960Z,59.30
2017-09-07T11:59:00.593Z,59.30
2017-09-07T12:01:28.103Z,59.70
2017-09-07T12:03:55.601Z,60.00
2017-09-07T12:06:23.128Z,60.10
2017-09-07T12:08:50.632Z,59.60
2017-09-07T12:11:18.148Z,59.90
2017-09-07T12:13:46.407Z,59.90
2017-09-07T12:16:13.946Z,59.70
2017-09-07T12:18:41.639Z,60.20
2017-09-07T12:21:09.147Z,59.90
2017-09-07T12:23:36.751Z,59.70
2017-09-07T12:26:04.411Z,59.80
2017-09-07T12:28:32.895Z,59.60
2017-09-07T12:31:00.402Z,59.20
2017-09-07T12:33:29.412Z,59.60
2017-09-07T12:35:57.079Z,59.90
2017-09-07T12:38:25.351Z,60.10
2017-09-07T12:40:52.859Z,60.10
2017-09-07T12:43:20.466Z,59.80
2017-09-07T12:45:48.527Z,60.20
2017-09-07T12:48:16.050Z,60.30
2017-09-07T12:50:43.943Z,60.00
2017-09-07T12:53:11.928Z,59.60
2017-09-07T12:55:39.607Z,59.10
2017-09-07T12:58:07.867Z,58.80
2017-09-07T13:00:35.379Z,57.80
2017-09-07T13:03:03.648Z,58.80
2017-09-07T13:05:32.067Z,59.20
2017-09-07T13:07:59.944Z,57.90
2017-09-07T13:10:27.447Z,57.90
2017-09-07T13:12:54.947Z,58.40
2017-09-07T13:15:22.871Z,58.10
2017-09-07T13:17:50.783Z,58.10
2017-09-07T13:20:18.300Z,57.50
2017-09-07T13:22:45.896Z,57.60
2017-09-07T13:25:13.827Z,58.30
2017-09-07T13:27:41.383Z,58.40
2017-09-07T13:30:09.077Z,59.00
2017-09-07T13:32:36.687Z,59.30
2017-09-07T13:35:05.359Z,59.60
2017-09-07T13:37:32.875Z,59.90
2017-09-07T13:40:00.748Z,60.00
2017-09-07T13:42:59.591Z,59.80
2017-09-07T13:45:28.879Z,59.70
2017-09-07T13:47:57.516Z,60.00
2017-09-07T13:50:25.104Z,60.60
2017-09-07T13:52:52.855Z,60.70
2017-09-07T13:55:20.356Z,60.80
2017-09-07T13:57:47.923Z,61.40
2017-09-07T14:00:15.423Z,60.30
2017-09-07T14:02:42.939Z,59.30
2017-09-07T14:05:10.471Z,59.20
2017-09-07T14:07:37.987Z,59.20
2017-09-07T14:10:05.483Z,59.60
2017-09-07T14:12:33.011Z,59.50
2017-09-07T14:15:00.518Z,59.20
2017-09-07T14:17:28.146Z,58.70
2017-09-07T14:19:55.759Z,58.60
2017-09-07T14:22:23.863Z,58.50
2017-09-07T14:24:51.368Z,58.30
2017-09-07T14:27:19.815Z,58.40
2017-09-07T14:29:47.471Z,58.70
2017-09-07T14:32:15.142Z,59.30
2017-09-07T14:34:42.807Z,59.70
2017-09-07T14:37:10.486Z,60.10
2017-09-07T14:39:37.992Z,60.00
2017-09-07T14:42:05.891Z,60.10
2017-09-07T14:44:34.347Z,59.70
2017-09-07T14:47:01.900Z,59.80
2017-09-07T14:49:29.426Z,59.70
2017-09-07T14:51:57.687Z,60.50
2017-09-07T14:54:25.975Z,60.20
2017-09-07T14:56:54.246Z,59.80
2017-09-07T14:59:22.896Z,59.40
2017-09-07T15:01:51.249Z,59.20
2017-09-07T15:04:18.791Z,59.30
2017-09-07T15:06:46.858Z,59.50
2017-09-07T15:09:14.395Z,59.60
2017-09-07T15:11:42.784Z,59.60
2017-09-07T15:14:10.771Z,59.40
2017-09-07T15:16:38.311Z,59.60
2017-09-07T15:19:06.571Z,59.60
2017-09-07T15:21:34.186Z,59.30
2017-09-07T15:24:02.827Z,59.90
2017-09-07T15:26:30.391Z,59.30
2017-09-07T15:28:59.039Z,59.40
2017-09-07T15:31:26.745Z,59.20
2017-09-07T15:33:55.385Z,59.10
2017-09-07T15:36:23.063Z,59.50
2017-09-07T15:38:50.579Z,58.60
2017-09-07T15:41:18.858Z,59.10
2017-09-07T15:43:47.881Z,58.80
2017-09-07T15:46:15.375Z,58.30
2017-09-07T15:48:42.971Z,59.20
2017-09-07T15:51:10.651Z,58.90
2017-09-07T15:53:38.311Z,59.30
2017-09-07T15:56:05.977Z,59.40
2017-09-07T15:58:33.827Z,59.50
2017-09-07T16:01:01.507Z,59.80
2017-09-07T16:03:29.160Z,60.10
2017-09-07T16:05:57.437Z,60.30
2017-09-07T16:08:25.915Z,60.10
2017-09-07T16:10:54.619Z,60.10
2017-09-07T16:13:22.132Z,59.90
2017-09-07T16:15:50.020Z,60.30
2017-09-07T16:18:17.522Z,60.00
2017-09-07T16:20:45.243Z,60.50
2017-09-07T16:23:12.735Z,60.10
2017-09-07T16:25:40.237Z,60.50
2017-09-07T16:28:07.756Z,60.40
2017-09-07T16:30:35.748Z,60.50
2017-09-07T16:33:03.643Z,60.60
2017-09-07T16:35:31.177Z,60.60
2017-09-07T16:37:59.243Z,60.60
2017-09-07T16:40:27.139Z,60.60
2017-09-07T16:42:55.411Z,60.90
2017-09-07T16:45:22.915Z,60.90
2017-09-07T16:47:52.141Z,60.90
2017-09-07T16:50:19.664Z,60.80
2017-09-07T16:52:48.063Z,61.00
2017-09-07T16:55:15.563Z,61.00
2017-09-07T16:57:43.055Z,61.00
2017-09-07T17:00:10.546Z,61.00
2017-09-07T17:02:38.039Z,61.00
2017-09-07T17:05:05.531Z,61.20
2017-09-07T17:07:33.054Z,61.20
2017-09-07T17:10:00.984Z,61.20
2017-09-07T17:12:28.496Z,61.00
2017-09-07T17:14:57.502Z,60.60
2017-09-07T17:17:25.055Z,60.60
2017-09-07T17:19:52.551Z,60.60
2017-09-07T17:22:21.194Z,60.50
2017-09-07T17:27:17.984Z,60.30
2017-09-07T17:29:46.259Z,60.60
2017-09-07T17:32:14.711Z,60.70
2017-09-07T17:34:42.636Z,60.80
2017-09-07T17:37:10.167Z,60.90
2017-09-07T17:39:37.673Z,61.20
2017-09-07T17:42:05.595Z,61.20
2017-09-07T17:44:33.934Z,61.80
2017-09-07T17:47:01.463Z,61.20
2017-09-07T17:49:30.108Z,61.30
2017-09-07T17:54:27.737Z,61.40
2017-09-07T17:56:55.284Z,61.60
2017-09-07T17:59:23.919Z,62.00
2017-09-07T18:01:51.411Z,62.30
2017-09-07T18:04:20.194Z,62.20
2017-09-07T18:06:47.696Z,62.50
2017-09-07T18:09:15.349Z,62.30
2017-09-07T18:11:43.298Z,62.40
2017-09-07T18:14:10.882Z,62.50
2017-09-07T18:16:38.436Z,62.60
2017-09-07T18:19:06.194Z,62.70
2017-09-07T18:21:33.755Z,62.70
2017-09-07T18:24:01.518Z,62.80
2017-09-07T18:26:29.594Z,62.80
2017-09-07T18:28:58.307Z,62.90
2017-09-07T18:31:26.630Z,63.60
2017-09-07T18:33:54.163Z,63.00
2017-09-07T18:36:22.888Z,63.10
2017-09-07T18:38:50.454Z,63.10
2017-09-07T18:41:18.559Z,63.20
2017-09-07T18:43:46.067Z,63.30
2017-09-07T18:46:13.599Z,63.60
2017-09-07T18:48:41.127Z,63.60
2017-09-07T18:51:08.642Z,63.80
2017-09-07T18:53:36.915Z,65.20
2017-09-07T18:56:05.206Z,64.10
2017-09-07T18:58:34.015Z,64.10
2017-09-07T19:01:02.099Z,64.10
2017-09-07T19:03:29.591Z,64.20
2017-09-07T19:05:57.207Z,64.30
2017-09-07T19:08:24.867Z,64.40
2017-09-07T19:10:52.512Z,64.40
2017-09-07T19:13:20.012Z,64.40
2017-09-07T19:15:47.628Z,64.50
2017-09-07T19:18:15.175Z,64.40
2017-09-07T19:20:42.699Z,64.40
2017-09-07T19:23:10.259Z,64.40
2017-09-07T19:25:38.667Z,64.90
2017-09-07T19:30:35.215Z,64.10
2017-09-07T19:33:03.910Z,64.10
2017-09-07T19:35:32.183Z,63.90
2017-09-07T19:38:00.082Z,63.90
2017-09-07T19:40:27.601Z,63.80
2017-09-07T19:42:55.124Z,64.10
2017-09-07T19:45:22.827Z,64.20
2017-09-07T19:47:50.482Z,64.40
2017-09-07T19:50:18.454Z,64.40
2017-09-07T19:52:47.482Z,64.40
2017-09-07T19:55:15.751Z,65.00
2017-09-07T19:57:43.276Z,64.40
2017-09-07T20:00:11.175Z,64.40
2017-09-07T20:02:39.492Z,65.00
2017-09-07T20:05:08.194Z,64.30
2017-09-07T20:07:35.724Z,64.30
2017-09-07T20:10:03.633Z,64.50
2017-09-07T20:12:31.143Z,64.60
2017-09-07T20:14:58.663Z,64.90
2017-09-07T20:17:27.077Z,65.80
2017-09-07T20:19:54.736Z,65.30
2017-09-07T20:22:22.400Z,65.20
2017-09-07T20:24:49.915Z,65.30
2017-09-07T20:27:17.919Z,65.30
2017-09-07T20:29:45.575Z,65.50
2017-09-07T20:32:13.483Z,65.70
2017-09-07T20:34:41.115Z,65.70
2017-09-07T20:37:09.631Z,65.80
2017-09-07T20:39:37.190Z,65.70
2017-09-07T20:42:05.457Z,65.70
2017-09-07T20:44:33.184Z,65.60
2017-09-07T20:47:00.879Z,65.60
2017-09-07T20:49:28.375Z,65.70
2017-09-07T20:54:25.643Z,65.40
2017-09-07T20:56:53.379Z,65.60
2017-09-07T20:59:21.651Z,66.10
2017-09-07T21:01:50.671Z,65.30
2017-09-07T21:04:18.204Z,65.90
2017-09-07T21:06:46.843Z,66.50
2017-09-07T21:09:14.344Z,66.60
2017-09-07T21:11:43.360Z,66.60
2017-09-07T21:14:10.863Z,66.70
2017-09-07T21:16:38.472Z,66.60
2017-09-07T21:19:05.975Z,66.40
2017-09-07T21:21:33.488Z,66.40
2017-09-07T21:24:00.986Z,66.30
2017-09-07T21:26:28.500Z,66.30
2017-09-07T21:28:56.432Z,66.10
2017-09-07T21:31:24.701Z,66.70
2017-09-07T21:33:52.278Z,65.80
2017-09-07T21:36:19.791Z,65.90
2017-09-07T21:38:47.692Z,65.70
2017-09-07T21:41:15.254Z,65.50
2017-09-07T21:46:11.759Z,65.50
2017-09-07T21:48:39.680Z,65.30
2017-09-07T21:51:07.339Z,65.30
2017-09-07T21:53:35.599Z,65.20
2017-09-07T21:56:03.491Z,64.90
2017-09-07T21:58:31.030Z,65.10
2017-09-07T22:00:58.579Z,65.30
2017-09-07T22:03:26.077Z,65.30
2017-09-07T22:05:54.728Z,65.30
2017-09-07T22:08:22.628Z,65.30
2017-09-07T22:10:50.523Z,65.40
2017-09-07T22:15:47.000Z,65.50
2017-09-07T22:18:14.640Z,65.60
2017-09-07T22:20:42.329Z,65.30
2017-09-07T22:23:10.227Z,65.10
2017-09-07T22:25:38.124Z,65.20
2017-09-07T22:28:05.683Z,65.10
2017-09-07T22:30:34.367Z,65.10
2017-09-07T22:33:02.262Z,65.50
2017-09-07T22:35:29.763Z,65.50
2017-09-07T22:37:58.023Z,66.10
2017-09-07T22:40:26.328Z,66.10
2017-09-07T22:42:53.828Z,65.50
2017-09-07T22:45:21.351Z,65.70
2017-09-07T22:47:49.008Z,65.70
2017-09-07T22:50:16.510Z,65.50
2017-09-07T22:52:44.029Z,65.70
2017-09-07T22:55:11.523Z,65.90
2017-09-07T22:57:39.852Z,66.50
2017-09-07T23:00:08.335Z,65.90
2017-09-07T23:02:35.994Z,65.90
2017-09-07T23:05:03.663Z,65.80
2017-09-07T23:07:31.296Z,65.70
2017-09-07T23:09:58.803Z,65.70
2017-09-07T23:12:26.415Z,65.70
2017-09-07T23:14:54.478Z,65.60
2017-09-07T23:17:21.975Z,65.50
2017-09-07T23:19:49.595Z,65.60
2017-09-07T23:22:18.223Z,65.60
2017-09-07T23:24:45.738Z,65.60
2017-09-07T23:27:13.265Z,65.50
2017-09-07T23:29:41.535Z,66.10
2017-09-07T23:32:09.803Z,66.20
2017-09-07T23:37:06.493Z,65.70
2017-09-07T23:39:33.983Z,65.60
2017-09-07T23:42:02.247Z,65.80
2017-09-07T23:44:29.887Z,65.70
2017-09-07T23:46:57.403Z,65.60
2017-09-07T23:49:25.307Z,65.50
2017-09-07T23:51:52.839Z,65.50
2017-09-07T23:54:20.346Z,65.20
2017-09-07T23:56:48.603Z,65.50
2017-09-07T23:59:16.868Z,65.90
